KHIO/HIO METAR and TAF weather

Enter ICAO airport designator
Station Type Date Time Source
KHIO METAR 2019/12/08 00:53 UTC NOAA

KHIO 080053Z 32003KT 6SM BR OVC008 08/08 A2973 RMK AO2 SLP068 P0001 T00830078


Station Type Date Time Source
KHIO Decoded METAR 2019/12/08 00:53 UTC NOAA

PORTLAND-HILLSBORO AIRPORT, OR, United States (KHIO) 45-33N 122-57W 68M
Dec 07, 2019 - 07:53 PM EST / 2019.12.08 0053 UTC
Wind: from the NW (320 degrees) at 3 MPH (3 KT):0
Visibility: 6 mile(s):0
Sky conditions: overcast
Weather: mist
Precipitation last hour: 0.01 inches
Temperature: 46.9 F (8.3 C)
Dew Point: 46.0 F (7.8 C)
Relative Humidity: 96%
Pressure (altimeter): 29.73 in. Hg (1006 hPa)
ob: KHIO 080053Z 32003KT 6SM BR OVC008 08/08 A2973 RMK AO2 SLP068 P0001 T00830078
cycle: 1

Station Type Date Time Source
KHIO TAF 2019/12/07 18:39 UTC NOAA

TAF KHIO 071737Z 0718/0818 VRB04KT 2SM -RA BR BKN004 BKN012 OVC040
FM072100 VRB03KT 5SM -RA BR SCT004 BKN012 OVC040
FM080200 VRB03KT 2SM -RA BR SCT003 BKN006 OVC012
FM080600 00000KT 1SM BR VCSH BKN003 OVC006

Example: see airport list